Time;durP1;ratioP1;P1;durP2;ratioP2;P2;SDS_P1;SDS_P2;PMS_P1;PMS_P2;Temp;Humidity;BMP_temperature;BMP_pressure;BME280_temperature;BME280_humidity;BME280_pressure;Samples;Min_cycle;Max_cycle;Signal;HPM_P1;HPM_P2
2022/01/14 00:02:03;;;;;;;27.45;15.82;;;;;;;;;;4920470;29;20055;-66
2022/01/14 00:04:30;;;;;;;29.60;15.93;;;;;;;;;;4937139;29;20111;-66
2022/01/14 00:06:57;;;;;;;30.23;16.92;;;;;;;;;;4920565;29;20087;-66
2022/01/14 00:09:24;;;;;;;27.17;15.65;;;;;;;;;;4920199;29;20051;-66
2022/01/14 00:11:55;;;;;;;29.55;16.15;;;;;;;;;;4944610;28;20114;-66
2022/01/14 00:14:35;;;;;;;33.20;16.02;;;;;;;;;;4956190;28;20407;-66
2022/01/14 00:17:04;;;;;;;28.33;16.17;;;;;;;;;;4955359;28;20059;-66
2022/01/14 00:19:30;;;;;;;28.77;16.60;;;;;;;;;;4939327;28;20051;-66
2022/01/14 00:22:01;;;;;;;30.55;16.40;;;;;;;;;;4956236;28;20051;-66
2022/01/14 00:31:37;;;;;;;27.10;15.88;;;;;;;;;;4926424;29;20254;-66
2022/01/14 00:33:00;;;;;;;28.65;16.08;;;;;;;;;;4935628;29;20055;-66
2022/01/14 00:35:30;;;;;;;30.98;16.90;;;;;;;;;;4936947;29;20052;-67
2022/01/14 00:37:56;;;;;;;28.25;15.50;;;;;;;;;;4919932;29;20051;-67
2022/01/14 00:40:23;;;;;;;31.33;17.05;;;;;;;;;;4936407;29;20506;-66
2022/01/14 00:42:50;;;;;;;27.23;16.50;;;;;;;;;;4935488;29;20466;-66
2022/01/14 00:45:17;;;;;;;27.63;15.85;;;;;;;;;;4935378;29;20466;-66
2022/01/14 00:47:44;;;;;;;29.30;16.23;;;;;;;;;;4935270;29;20466;-66
2022/01/14 00:50:13;;;;;;;28.50;15.55;;;;;;;;;;4919606;29;20055;-67
2022/01/14 00:52:41;;;;;;;29.55;15.45;;;;;;;;;;4919707;29;20055;-65
2022/01/14 00:55:09;;;;;;;29.55;16.17;;;;;;;;;;4935573;29;20052;-67
2022/01/14 01:00:23;;;;;;;29.70;16.42;;;;;;;;;;4935378;29;20455;-66
2022/01/14 01:02:50;;;;;;;30.00;16.67;;;;;;;;;;4936103;29;20061;-66
2022/01/14 01:05:18;;;;;;;27.67;15.43;;;;;;;;;;4935121;29;20047;-66
2022/01/14 01:07:49;;;;;;;28.10;15.55;;;;;;;;;;4954164;29;20047;-66
2022/01/14 01:10:17;;;;;;;28.13;16.13;;;;;;;;;;4954110;28;20469;-66
2022/01/14 01:15:17;;;;;;;29.15;15.18;;;;;;;;;;4955256;28;20407;-66
2022/01/14 01:17:44;;;;;;;31.45;16.73;;;;;;;;;;4937996;29;20110;-66
2022/01/14 01:20:13;;;;;;;25.85;15.68;;;;;;;;;;4953884;28;20055;-66
2022/01/14 01:22:40;;;;;;;28.20;15.18;;;;;;;;;;4954839;28;20060;-66
2022/01/14 01:25:09;;;;;;;27.67;14.95;;;;;;;;;;4938246;29;20051;-68
2022/01/14 01:27:39;;;;;;;30.13;16.35;;;;;;;;;;4953793;28;20055;-68
2022/01/14 01:30:15;;;;;;;34.83;15.80;;;;;;;;;;4954775;28;20102;-68
2022/01/14 01:32:46;;;;;;;30.65;14.98;;;;;;;;;;4954666;28;20051;-69
2022/01/14 01:35:14;;;;;;;27.17;15.48;;;;;;;;;;4953745;28;20114;-68
2022/01/14 01:37:41;;;;;;;31.98;15.70;;;;;;;;;;4953537;28;20054;-66
2022/01/14 01:40:08;;;;;;;27.65;15.82;;;;;;;;;;4954714;28;20044;-66
2022/01/14 01:42:35;;;;;;;30.50;16.40;;;;;;;;;;4944520;29;20051;-66
2022/01/14 01:45:09;;;;;;;26.02;15.23;;;;;;;;;;4918795;29;20048;-67
2022/01/14 01:47:37;;;;;;;28.23;16.40;;;;;;;;;;4934230;29;20744;-66
2022/01/14 01:50:13;;;;;;;35.45;17.88;;;;;;;;;;4906741;28;20047;-66
2022/01/14 01:52:40;;;;;;;30.90;16.30;;;;;;;;;;4953183;28;20051;-66
2022/01/14 01:55:07;;;;;;;36.45;17.08;;;;;;;;;;4937683;29;20051;-66
2022/01/14 01:57:34;;;;;;;33.22;17.40;;;;;;;;;;4953153;28;20474;-66
2022/01/14 02:00:05;;;;;;;32.92;17.23;;;;;;;;;;4953311;28;20074;-66
2022/01/14 02:02:31;;;;;;;36.08;18.98;;;;;;;;;;4937386;29;20498;-66
2022/01/14 02:04:59;;;;;;;41.90;18.92;;;;;;;;;;4937480;29;20054;-68
2022/01/14 02:07:25;;;;;;;34.33;18.67;;;;;;;;;;4952978;28;20054;-66
2022/01/14 02:09:52;;;;;;;34.35;19.02;;;;;;;;;;4954140;28;20058;-66
2022/01/14 02:12:19;;;;;;;30.17;18.20;;;;;;;;;;4952638;28;20103;-66
2022/01/14 02:15:08;;;;;;;29.63;17.55;;;;;;;;;;4921516;28;20470;-66
2022/01/14 02:18:26;;;;;;;31.50;16.98;;;;;;;;;;4953083;28;20051;-66
2022/01/14 02:23:27;;;;;;;31.17;17.27;;;;;;;;;;4952822;29;20121;-66
2022/01/14 02:25:53;;;;;;;29.55;15.65;;;;;;;;;;4968660;28;20051;-66
2022/01/14 02:28:20;;;;;;;31.70;16.98;;;;;;;;;;4953040;29;20098;-66
2022/01/14 02:30:48;;;;;;;32.75;17.02;;;;;;;;;;4953928;28;20058;-66
2022/01/14 02:33:24;;;;;;;31.70;16.90;;;;;;;;;;4952630;29;20573;-66
2022/01/14 02:35:51;;;;;;;30.63;17.23;;;;;;;;;;4953907;28;20055;-66
2022/01/14 02:38:18;;;;;;;25.88;16.05;;;;;;;;;;4968566;28;20047;-66
2022/01/14 02:40:45;;;;;;;30.15;16.77;;;;;;;;;;4992263;23;20074;-64
2022/01/14 02:43:14;;;;;;;27.58;15.88;;;;;;;;;;4920790;29;20052;-64
2022/01/14 02:45:49;;;;;;;29.45;17.33;;;;;;;;;;4915576;29;20052;-64
2022/01/14 02:48:17;;;;;;;31.42;17.33;;;;;;;;;;4914477;29;20400;-64
2022/01/14 02:56:19;;;;;;;31.17;17.38;;;;;;;;;;4930227;29;20087;-66
2022/01/14 02:58:46;;;;;;;32.38;18.55;;;;;;;;;;4929925;29;20500;-66
2022/01/14 03:01:17;;;;;;;31.30;17.90;;;;;;;;;;4929955;29;20076;-66
2022/01/14 03:03:45;;;;;;;31.98;17.15;;;;;;;;;;4915386;29;20052;-66
2022/01/14 03:06:13;;;;;;;31.23;18.02;;;;;;;;;;4915439;29;20052;-66
2022/01/14 03:08:43;;;;;;;29.30;17.23;;;;;;;;;;4915483;29;20067;-68
2022/01/14 03:11:15;;;;;;;31.42;17.50;;;;;;;;;;4929988;29;20049;-66
2022/01/14 03:13:42;;;;;;;34.50;18.23;;;;;;;;;;4914079;29;20120;-66
2022/01/14 03:16:09;;;;;;;32.72;17.85;;;;;;;;;;4915632;29;20400;-67
2022/01/14 03:18:47;;;;;;;35.83;18.75;;;;;;;;;;4915042;29;20052;-67
2022/01/14 03:21:16;;;;;;;30.65;17.70;;;;;;;;;;4915305;29;20404;-67
2022/01/14 03:23:47;;;;;;;38.58;19.25;;;;;;;;;;4915803;29;20052;-68
2022/01/14 03:26:15;;;;;;;33.13;18.52;;;;;;;;;;4919002;29;20492;-68
2022/01/14 03:28:42;;;;;;;29.70;17.00;;;;;;;;;;4919033;29;20052;-68
2022/01/14 03:31:09;;;;;;;31.83;17.77;;;;;;;;;;4919463;29;20048;-66
2022/01/14 03:33:36;;;;;;;37.13;19.52;;;;;;;;;;4918984;29;20056;-68
2022/01/14 03:36:04;;;;;;;31.67;18.75;;;;;;;;;;4919144;29;20103;-68
2022/01/14 03:38:30;;;;;;;40.42;18.65;;;;;;;;;;4918579;29;20057;-68
2022/01/14 03:40:57;;;;;;;33.78;18.38;;;;;;;;;;4918727;29;20047;-67
2022/01/14 03:43:24;;;;;;;33.72;18.73;;;;;;;;;;4918526;29;20052;-68
2022/01/14 03:45:51;;;;;;;32.63;18.63;;;;;;;;;;4918665;29;20052;-68
2022/01/14 03:48:18;;;;;;;36.13;19.58;;;;;;;;;;4918594;29;20052;-68
2022/01/14 03:50:45;;;;;;;35.35;18.75;;;;;;;;;;4918435;29;20044;-68
2022/01/14 03:53:12;;;;;;;34.78;19.42;;;;;;;;;;4928073;29;20317;-67
2022/01/14 03:55:40;;;;;;;39.67;18.75;;;;;;;;;;4937450;29;20051;-67
2022/01/14 03:58:26;;;;;;;35.90;19.70;;;;;;;;;;4937433;29;20143;-67
2022/01/14 04:00:53;;;;;;;36.75;21.52;;;;;;;;;;4937474;29;20044;-68
2022/01/14 04:03:20;;;;;;;38.97;19.92;;;;;;;;;;4930417;29;20464;-69
2022/01/14 04:05:46;;;;;;;32.22;20.00;;;;;;;;;;4918441;29;20052;-68
2022/01/14 04:08:13;;;;;;;34.35;20.05;;;;;;;;;;4918450;29;20056;-67
2022/01/14 04:10:40;;;;;;;35.63;18.88;;;;;;;;;;4918145;29;20048;-67
2022/01/14 04:13:15;;;;;;;37.08;19.55;;;;;;;;;;4918058;29;20056;-67
2022/01/14 04:15:43;;;;;;;39.25;21.90;;;;;;;;;;4931715;29;20055;-67
2022/01/14 04:18:15;;;;;;;40.20;20.23;;;;;;;;;;4918161;29;20131;-67
2022/01/14 04:20:47;;;;;;;41.80;21.33;;;;;;;;;;4918262;29;20174;-68
2022/01/14 04:23:19;;;;;;;32.63;19.88;;;;;;;;;;4926700;29;20056;-67
2022/01/14 04:25:51;;;;;;;31.80;18.75;;;;;;;;;;4937047;29;20059;-67
2022/01/14 04:28:18;;;;;;;30.57;18.43;;;;;;;;;;4937033;29;20052;-68
2022/01/14 04:30:46;;;;;;;35.70;19.65;;;;;;;;;;4936682;29;20047;-68
2022/01/14 04:33:12;;;;;;;31.27;18.45;;;;;;;;;;4935938;29;20162;-67
2022/01/14 04:35:39;;;;;;;32.08;18.77;;;;;;;;;;4936095;29;20052;-68
2022/01/14 04:38:06;;;;;;;35.25;19.08;;;;;;;;;;4936869;29;20060;-67
2022/01/14 04:40:33;;;;;;;31.63;17.95;;;;;;;;;;4936724;29;20051;-68
2022/01/14 04:43:00;;;;;;;28.40;16.98;;;;;;;;;;4936517;29;20075;-68
2022/01/14 04:47:56;;;;;;;33.45;19.02;;;;;;;;;;4936651;29;20458;-68
2022/01/14 04:50:24;;;;;;;40.40;21.42;;;;;;;;;;4936412;29;20521;-69
2022/01/14 04:52:51;;;;;;;43.13;22.45;;;;;;;;;;4930333;29;20107;-68
2022/01/14 04:55:20;;;;;;;35.45;21.83;;;;;;;;;;4917736;29;20424;-67
2022/01/14 04:57:47;;;;;;;33.90;20.35;;;;;;;;;;4917670;29;20467;-68
2022/01/14 05:00:16;;;;;;;32.10;16.90;;;;;;;;;;4917554;29;20111;-68
2022/01/14 05:02:43;;;;;;;32.53;17.50;;;;;;;;;;4917326;29;20491;-67
2022/01/14 05:05:10;;;;;;;32.17;17.15;;;;;;;;;;4917630;29;20056;-68
2022/01/14 05:07:37;;;;;;;31.15;18.15;;;;;;;;;;4917159;29;20048;-68
2022/01/14 05:12:38;;;;;;;32.15;17.92;;;;;;;;;;4919328;29;20040;-67
2022/01/14 05:15:05;;;;;;;34.50;17.52;;;;;;;;;;4936546;29;20051;-67
2022/01/14 05:17:32;;;;;;;30.48;18.42;;;;;;;;;;4934759;29;20048;-69
2022/01/14 05:19:58;;;;;;;31.25;18.00;;;;;;;;;;4936137;29;20051;-68
2022/01/14 05:22:25;;;;;;;32.97;19.50;;;;;;;;;;4935925;29;20102;-67
2022/01/14 05:24:52;;;;;;;36.97;18.85;;;;;;;;;;4935881;29;20110;-68
2022/01/14 05:27:19;;;;;;;33.03;17.83;;;;;;;;;;4935623;29;20055;-67
2022/01/14 05:29:45;;;;;;;30.95;18.10;;;;;;;;;;4935684;29;20063;-68
2022/01/14 05:32:14;;;;;;;34.35;18.55;;;;;;;;;;4935655;29;20043;-69
2022/01/14 05:34:42;;;;;;;31.92;18.40;;;;;;;;;;4916478;29;20499;-67
2022/01/14 05:37:09;;;;;;;30.40;17.55;;;;;;;;;;4916858;29;20119;-68
2022/01/14 05:39:35;;;;;;;32.75;18.35;;;;;;;;;;4916859;29;20055;-68
2022/01/14 05:42:06;;;;;;;40.25;17.90;;;;;;;;;;4916949;29;20056;-66
2022/01/14 05:44:33;;;;;;;32.67;19.58;;;;;;;;;;4916344;29;20048;-68
2022/01/14 05:47:00;;;;;;;34.70;19.50;;;;;;;;;;4916122;29;20056;-68
2022/01/14 05:49:27;;;;;;;32.50;19.02;;;;;;;;;;4915716;29;20504;-67
2022/01/14 05:51:54;;;;;;;33.03;20.15;;;;;;;;;;4916432;29;20052;-68
2022/01/14 05:54:20;;;;;;;38.95;19.95;;;;;;;;;;4932369;29;20106;-67
2022/01/14 05:56:47;;;;;;;33.17;18.38;;;;;;;;;;4935180;29;20495;-68
2022/01/14 05:59:14;;;;;;;29.17;16.98;;;;;;;;;;4935309;29;20106;-68
2022/01/14 06:01:41;;;;;;;34.85;18.05;;;;;;;;;;4925637;29;20052;-68
2022/01/14 06:04:07;;;;;;;35.63;17.35;;;;;;;;;;4916131;29;20127;-68
2022/01/14 06:06:34;;;;;;;32.97;18.60;;;;;;;;;;4914935;29;20056;-68
2022/01/14 06:09:02;;;;;;;29.52;17.92;;;;;;;;;;4916109;29;20052;-67
2022/01/14 06:11:30;;;;;;;27.25;16.67;;;;;;;;;;4926622;29;20102;-67
2022/01/14 06:13:57;;;;;;;35.13;19.10;;;;;;;;;;4935077;29;20060;-68
2022/01/14 06:16:24;;;;;;;34.47;19.17;;;;;;;;;;4934859;29;20424;-67
2022/01/14 06:18:50;;;;;;;30.65;18.17;;;;;;;;;;4935220;29;20056;-68
2022/01/14 06:21:17;;;;;;;33.58;20.63;;;;;;;;;;4935160;29;20102;-67
2022/01/14 06:23:44;;;;;;;32.38;18.77;;;;;;;;;;4934659;29;20495;-67
2022/01/14 06:26:20;;;;;;;31.83;17.17;;;;;;;;;;4934889;29;20506;-66
2022/01/14 06:28:47;;;;;;;37.60;18.55;;;;;;;;;;4934747;29;20055;-65
2022/01/14 06:31:14;;;;;;;31.52;17.58;;;;;;;;;;4927021;29;20084;-66
2022/01/14 06:33:41;;;;;;;32.25;19.17;;;;;;;;;;4927944;29;20059;-66
2022/01/14 06:36:08;;;;;;;32.92;19.60;;;;;;;;;;4934760;29;20529;-66
2022/01/14 06:38:35;;;;;;;36.15;19.55;;;;;;;;;;4934476;29;20051;-66
2022/01/14 06:41:02;;;;;;;34.70;18.88;;;;;;;;;;4928689;29;20111;-66
2022/01/14 06:43:28;;;;;;;32.90;20.02;;;;;;;;;;4916184;29;20060;-65
2022/01/14 06:45:55;;;;;;;38.35;19.77;;;;;;;;;;4920418;29;20114;-65
2022/01/14 06:48:23;;;;;;;38.33;21.73;;;;;;;;;;4934494;29;20060;-65
2022/01/14 06:50:49;;;;;;;38.15;21.88;;;;;;;;;;4933965;29;20055;-66
2022/01/14 06:53:16;;;;;;;36.47;19.25;;;;;;;;;;4934322;29;20306;-67
2022/01/14 06:55:43;;;;;;;32.13;19.23;;;;;;;;;;4934142;29;20142;-66
2022/01/14 06:58:09;;;;;;;34.05;19.85;;;;;;;;;;4934138;29;20051;-66
2022/01/14 07:00:36;;;;;;;33.05;20.08;;;;;;;;;;4937335;29;20063;-65
2022/01/14 07:03:03;;;;;;;33.70;18.60;;;;;;;;;;4937786;29;20048;-66
2022/01/14 07:05:29;;;;;;;34.95;19.88;;;;;;;;;;4934150;29;20578;-66
2022/01/14 07:07:56;;;;;;;31.83;17.58;;;;;;;;;;4928023;29;20462;-65
2022/01/14 07:10:22;;;;;;;36.45;19.08;;;;;;;;;;4936336;29;20055;-66
2022/01/14 07:12:49;;;;;;;36.08;18.23;;;;;;;;;;4935864;29;20051;-68
2022/01/14 07:15:20;;;;;;;35.00;18.35;;;;;;;;;;4929843;29;20060;-66
2022/01/14 07:17:47;;;;;;;32.13;18.35;;;;;;;;;;4917019;29;20119;-67
2022/01/14 07:20:15;;;;;;;35.95;18.52;;;;;;;;;;4916761;29;20554;-67
2022/01/14 07:22:45;;;;;;;32.92;19.15;;;;;;;;;;4916925;29;20107;-67
2022/01/14 07:25:16;;;;;;;35.53;17.55;;;;;;;;;;4917246;29;20060;-67
2022/01/14 07:27:43;;;;;;;35.83;18.42;;;;;;;;;;4920617;29;20052;-66
2022/01/14 07:30:10;;;;;;;36.42;19.63;;;;;;;;;;4917002;29;20052;-67
2022/01/14 07:32:36;;;;;;;31.77;17.83;;;;;;;;;;4916213;29;20128;-67
2022/01/14 07:35:03;;;;;;;33.17;18.88;;;;;;;;;;4917095;29;20111;-66
2022/01/14 07:37:30;;;;;;;39.35;20.08;;;;;;;;;;4931464;29;20115;-67
2022/01/14 07:39:57;;;;;;;34.47;19.50;;;;;;;;;;4925172;29;20070;-67
2022/01/14 07:42:24;;;;;;;33.97;19.30;;;;;;;;;;4935758;29;20339;-67
2022/01/14 07:44:50;;;;;;;32.08;18.90;;;;;;;;;;4935886;29;20055;-66
2022/01/14 07:47:17;;;;;;;34.33;19.20;;;;;;;;;;4935158;29;20499;-66
2022/01/14 07:49:44;;;;;;;35.15;19.75;;;;;;;;;;4935860;29;20079;-66
2022/01/14 07:52:10;;;;;;;36.10;20.08;;;;;;;;;;4935593;29;20087;-65
2022/01/14 07:54:37;;;;;;;37.53;20.15;;;;;;;;;;4936125;29;20110;-67
2022/01/14 07:57:04;;;;;;;36.58;20.55;;;;;;;;;;4935551;29;20055;-67
2022/01/14 07:59:32;;;;;;;37.55;21.50;;;;;;;;;;4934966;29;20055;-65
2022/01/14 08:02:00;;;;;;;40.92;22.60;;;;;;;;;;4925173;29;20047;-66
2022/01/14 08:04:27;;;;;;;39.65;21.90;;;;;;;;;;4934678;29;20099;-66
2022/01/14 08:06:57;;;;;;;42.40;22.60;;;;;;;;;;4933608;29;20044;-68
2022/01/14 08:09:24;;;;;;;36.15;20.95;;;;;;;;;;4933397;29;20106;-67
2022/01/14 08:11:51;;;;;;;39.33;22.33;;;;;;;;;;4932887;29;20047;-67
2022/01/14 08:14:17;;;;;;;40.05;23.52;;;;;;;;;;4933533;29;20070;-66
2022/01/14 08:16:44;;;;;;;42.13;24.30;;;;;;;;;;4933651;29;20107;-67
2022/01/14 08:19:11;;;;;;;40.95;23.80;;;;;;;;;;4935032;29;20056;-66
2022/01/14 08:21:38;;;;;;;34.67;21.60;;;;;;;;;;4935686;28;20399;-66
2022/01/14 08:24:05;;;;;;;37.95;21.38;;;;;;;;;;4933762;29;20103;-67
2022/01/14 08:26:32;;;;;;;36.72;21.25;;;;;;;;;;4932962;29;20052;-67
2022/01/14 08:28:59;;;;;;;38.15;20.85;;;;;;;;;;4933779;29;20051;-67
2022/01/14 08:31:26;;;;;;;36.67;20.98;;;;;;;;;;4933274;29;20051;-68
2022/01/14 08:33:53;;;;;;;33.53;19.60;;;;;;;;;;4933750;29;20048;-68
2022/01/14 08:36:23;;;;;;;36.15;20.15;;;;;;;;;;4933271;29;20055;-68
2022/01/14 08:38:51;;;;;;;35.88;19.70;;;;;;;;;;4933048;29;20051;-67
2022/01/14 08:41:19;;;;;;;32.50;18.92;;;;;;;;;;4933238;29;20134;-65
2022/01/14 08:43:47;;;;;;;36.40;18.92;;;;;;;;;;4933097;29;20056;-65
2022/01/14 08:46:14;;;;;;;35.80;20.05;;;;;;;;;;4932370;29;20134;-65
2022/01/14 08:48:42;;;;;;;33.25;20.00;;;;;;;;;;4933010;29;20086;-65
2022/01/14 08:51:09;;;;;;;32.67;18.60;;;;;;;;;;4933482;29;20052;-66
2022/01/14 08:53:35;;;;;;;32.85;19.10;;;;;;;;;;4932397;29;20048;-67
2022/01/14 08:56:02;;;;;;;32.28;20.17;;;;;;;;;;4935402;29;20094;-68
2022/01/14 08:58:29;;;;;;;33.08;19.83;;;;;;;;;;4934754;29;20056;-69
2022/01/14 09:00:56;;;;;;;30.33;19.15;;;;;;;;;;4935132;29;20396;-71
2022/01/14 09:03:23;;;;;;;33.97;19.55;;;;;;;;;;4934687;29;20043;-69
2022/01/14 09:05:50;;;;;;;35.00;20.13;;;;;;;;;;4935078;29;20048;-75
2022/01/14 09:08:17;;;;;;;32.63;18.75;;;;;;;;;;4928847;29;20060;-76
2022/01/14 09:10:44;;;;;;;31.42;18.85;;;;;;;;;;4933172;29;20054;-76
2022/01/14 09:13:13;;;;;;;32.22;18.95;;;;;;;;;;4916670;29;20047;-73
2022/01/14 09:15:44;;;;;;;31.67;18.50;;;;;;;;;;4917163;29;20416;-74
2022/01/14 09:18:11;;;;;;;32.15;18.58;;;;;;;;;;4934229;29;20139;-73
2022/01/14 09:20:38;;;;;;;32.47;18.33;;;;;;;;;;4934122;29;20059;-68
2022/01/14 09:23:12;;;;;;;32.17;18.17;;;;;;;;;;4934159;29;20052;-68
2022/01/14 09:25:39;;;;;;;29.48;17.55;;;;;;;;;;4933670;29;20051;-73
2022/01/14 09:28:06;;;;;;;27.88;17.02;;;;;;;;;;4934691;29;20059;-72
2022/01/14 09:30:33;;;;;;;28.15;17.77;;;;;;;;;;4932771;29;20086;-72
2022/01/14 09:33:00;;;;;;;26.23;17.30;;;;;;;;;;4913122;28;20048;-66
2022/01/14 09:35:27;;;;;;;28.40;17.48;;;;;;;;;;4953238;28;20070;-67
2022/01/14 09:37:54;;;;;;;28.05;16.38;;;;;;;;;;4953294;29;20054;-68
2022/01/14 09:40:23;;;;;;;30.02;16.73;;;;;;;;;;4952224;29;20502;-72
2022/01/14 09:42:51;;;;;;;28.13;17.08;;;;;;;;;;4953073;29;20047;-75
2022/01/14 09:45:18;;;;;;;28.55;17.80;;;;;;;;;;4954828;28;20127;-74
2022/01/14 09:47:49;;;;;;;31.00;16.75;;;;;;;;;;4953202;29;20055;-73
2022/01/14 09:50:18;;;;;;;30.52;17.33;;;;;;;;;;4951912;29;20051;-73
2022/01/14 09:52:47;;;;;;;26.33;16.98;;;;;;;;;;4952471;29;20418;-73
2022/01/14 09:55:14;;;;;;;27.88;15.82;;;;;;;;;;4953344;29;20058;-66
2022/01/14 09:57:41;;;;;;;26.85;16.88;;;;;;;;;;4954046;28;20053;-69
2022/01/14 10:00:09;;;;;;;27.58;16.13;;;;;;;;;;4949261;29;20474;-67
2022/01/14 10:02:42;;;;;;;27.08;16.23;;;;;;;;;;4950881;28;20051;-66
2022/01/14 10:05:10;;;;;;;26.08;17.58;;;;;;;;;;4953018;29;20055;-69
2022/01/14 10:07:37;;;;;;;26.27;15.65;;;;;;;;;;4950661;29;20056;-64
2022/01/14 10:10:23;;;;;;;23.52;15.60;;;;;;;;;;4967668;28;20082;-68
2022/01/14 10:12:50;;;;;;;26.30;16.33;;;;;;;;;;4950286;28;20054;-68
2022/01/14 10:15:17;;;;;;;22.90;15.25;;;;;;;;;;4949660;28;20422;-66
2022/01/14 10:17:44;;;;;;;26.05;16.35;;;;;;;;;;4952555;28;20115;-68
2022/01/14 10:20:16;;;;;;;;;;;;;;;;;;4952125;29;20691;-68
2022/01/14 10:22:47;;;;;;;23.95;14.32;;;;;;;;;;4952212;28;19927;-66
2022/01/14 10:25:18;;;;;;;24.40;15.13;;;;;;;;;;4952774;28;20503;-67
2022/01/14 10:27:48;;;;;;;25.48;15.95;;;;;;;;;;4942351;29;20521;-69
2022/01/14 10:30:20;;;;;;;23.05;14.50;;;;;;;;;;4952445;29;20267;-68
2022/01/14 10:32:56;;;;;;;22.58;14.18;;;;;;;;;;4950830;29;20047;-68
2022/01/14 10:35:24;;;;;;;22.13;14.18;;;;;;;;;;4951953;28;20109;-68
2022/01/14 10:37:50;;;;;;;25.08;15.43;;;;;;;;;;4948867;29;20111;-68
2022/01/14 10:40:22;;;;;;;28.33;15.65;;;;;;;;;;4952422;29;20047;-67
2022/01/14 10:42:52;;;;;;;25.83;14.75;;;;;;;;;;4952082;29;20066;-64
2022/01/14 10:45:39;;;;;;;21.20;14.63;;;;;;;;;;4949180;29;20150;-67
2022/01/14 10:48:10;;;;;;;23.90;15.27;;;;;;;;;;4951566;29;20119;-68
2022/01/14 10:50:46;;;;;;;26.77;15.57;;;;;;;;;;4952093;29;20498;-67
2022/01/14 10:53:15;;;;;;;26.77;16.05;;;;;;;;;;4951712;29;20050;-68
2022/01/14 10:55:47;;;;;;;25.20;15.45;;;;;;;;;;4953070;28;20058;-68
2022/01/14 10:58:17;;;;;;;26.35;16.85;;;;;;;;;;4949484;29;20055;-67
2022/01/14 11:00:47;;;;;;;24.50;16.00;;;;;;;;;;4952157;28;20051;-68
2022/01/14 11:03:15;;;;;;;24.30;15.60;;;;;;;;;;4951911;29;20106;-67
2022/01/14 11:05:42;;;;;;;23.10;14.05;;;;;;;;;;4952431;28;20071;-68
2022/01/14 11:08:09;;;;;;;20.90;14.15;;;;;;;;;;4957103;28;20047;-67
2022/01/14 11:10:37;;;;;;;25.55;15.68;;;;;;;;;;4952317;28;20141;-68
2022/01/14 11:13:07;;;;;;;23.98;15.18;;;;;;;;;;4951998;29;20347;-68
2022/01/14 11:15:34;;;;;;;24.13;15.25;;;;;;;;;;4948657;29;20062;-68
2022/01/14 11:18:05;;;;;;;19.17;13.10;;;;;;;;;;4951954;29;20047;-68
2022/01/14 11:20:36;;;;;;;21.88;12.43;;;;;;;;;;4951894;28;20051;-68
2022/01/14 11:23:15;;;;;;;20.70;14.65;;;;;;;;;;4952029;29;20043;-68
2022/01/14 11:25:56;;;;;;;20.30;13.15;;;;;;;;;;4952353;29;20051;-68
2022/01/14 11:28:28;;;;;;;24.23;15.90;;;;;;;;;;4951718;29;20705;-67
2022/01/14 11:30:55;;;;;;;26.23;15.73;;;;;;;;;;4966713;28;20093;-68
2022/01/14 11:33:40;;;;;;;19.42;14.23;;;;;;;;;;4950559;29;20130;-67
2022/01/14 11:36:07;;;;;;;25.45;14.93;;;;;;;;;;4963842;28;20502;-67
2022/01/14 11:38:44;;;;;;;22.90;14.75;;;;;;;;;;4950887;28;20047;-68
2022/01/14 11:41:16;;;;;;;22.20;13.93;;;;;;;;;;4951954;29;20051;-68
2022/01/14 11:43:51;;;;;;;19.70;14.18;;;;;;;;;;4951609;29;20408;-67
2022/01/14 11:46:30;;;;;;;22.33;14.73;;;;;;;;;;4953299;28;20051;-69
2022/01/14 11:48:57;;;;;;;20.92;13.98;;;;;;;;;;4954383;29;20422;-70
2022/01/14 11:51:24;;;;;;;24.13;14.57;;;;;;;;;;4955316;28;20059;-68
2022/01/14 11:54:04;;;;;;;20.23;13.73;;;;;;;;;;4938264;28;20106;-72
2022/01/14 11:56:31;;;;;;;24.88;13.75;;;;;;;;;;4956516;28;20470;-70
2022/01/14 11:59:22;;;;;;;20.30;13.65;;;;;;;;;;4953929;28;20054;-67
2022/01/14 12:01:56;;;;;;;18.23;12.77;;;;;;;;;;4954649;28;20047;-70
2022/01/14 12:04:50;;;;;;;21.88;13.75;;;;;;;;;;4955346;29;20130;-69
2022/01/14 12:07:16;;;;;;;24.60;14.05;;;;;;;;;;4958357;28;20054;-69
2022/01/14 12:10:04;;;;;;;21.65;12.95;;;;;;;;;;4955224;29;20051;-68
2022/01/14 12:12:33;;;;;;;21.00;13.55;;;;;;;;;;4953872;28;20073;-67
2022/01/14 12:15:02;;;;;;;19.25;13.40;;;;;;;;;;4956228;28;20127;-68
2022/01/14 12:17:36;;;;;;;22.00;13.23;;;;;;;;;;4955033;28;20051;-68
2022/01/14 12:20:28;;;;;;;21.13;12.65;;;;;;;;;;4952582;29;20051;-67
2022/01/14 12:23:06;;;;;;;20.02;13.15;;;;;;;;;;4955492;28;20107;-72
2022/01/14 12:25:43;;;;;;;19.52;12.57;;;;;;;;;;4953610;29;20051;-69
2022/01/14 12:28:20;;;;;;;20.70;13.48;;;;;;;;;;4960831;29;20051;-72
2022/01/14 12:30:58;;;;;;;18.45;12.52;;;;;;;;;;4967825;29;20059;-68
2022/01/14 12:33:50;;;;;;;22.27;13.07;;;;;;;;;;4983899;28;20083;-72
2022/01/14 12:36:18;;;;;;;17.98;11.82;;;;;;;;;;4959225;29;20133;-70
2022/01/14 12:38:46;;;;;;;16.40;11.65;;;;;;;;;;4964251;29;20051;-72
2022/01/14 12:41:24;;;;;;;15.88;11.38;;;;;;;;;;4960671;29;20083;-72
2022/01/14 12:43:53;;;;;;;17.20;11.63;;;;;;;;;;4963190;29;20039;-71
2022/01/14 12:49:16;;;;;;;17.05;11.52;;;;;;;;;;4976640;28;20054;-70
2022/01/14 12:51:43;;;;;;;17.67;13.05;;;;;;;;;;4967349;28;20110;-70
2022/01/14 12:54:10;;;;;;;18.73;12.85;;;;;;;;;;4975609;28;20094;-68
2022/01/14 12:56:39;;;;;;;17.55;13.13;;;;;;;;;;4970052;28;20074;-68
2022/01/14 12:59:09;;;;;;;16.27;11.45;;;;;;;;;;4962777;29;20047;-68
2022/01/14 13:01:40;;;;;;;18.70;13.02;;;;;;;;;;4961467;29;20051;-70
2022/01/14 13:04:12;;;;;;;17.38;12.35;;;;;;;;;;4968689;29;20063;-69
2022/01/14 13:06:48;;;;;;;18.08;12.57;;;;;;;;;;4975367;28;20059;-69
2022/01/14 13:09:20;;;;;;;20.20;12.93;;;;;;;;;;4954549;29;20102;-71
2022/01/14 13:11:55;;;;;;;19.03;12.67;;;;;;;;;;4954786;29;20090;-68
2022/01/14 13:14:34;;;;;;;18.48;11.68;;;;;;;;;;4954228;29;20047;-70
2022/01/14 13:17:12;;;;;;;18.23;13.02;;;;;;;;;;4951813;29;20239;-68
2022/01/14 13:19:39;;;;;;;17.20;13.10;;;;;;;;;;4952544;29;20050;-67
2022/01/14 13:22:09;;;;;;;17.10;12.25;;;;;;;;;;4953860;29;20051;-68
2022/01/14 13:24:37;;;;;;;19.13;12.50;;;;;;;;;;4953845;28;20047;-72
2022/01/14 13:27:12;;;;;;;20.30;13.50;;;;;;;;;;4952561;29;20058;-74
2022/01/14 13:29:47;;;;;;;19.85;13.10;;;;;;;;;;4951235;29;20106;-72
2022/01/14 13:32:17;;;;;;;20.98;12.52;;;;;;;;;;4960975;28;20454;-74
2022/01/14 13:34:49;;;;;;;18.90;12.57;;;;;;;;;;4952420;28;20053;-73
2022/01/14 13:37:17;;;;;;;18.08;13.02;;;;;;;;;;4968325;28;20573;-73
2022/01/14 13:39:44;;;;;;;16.73;11.82;;;;;;;;;;4963465;28;20058;-73
2022/01/14 13:42:21;;;;;;;18.10;12.48;;;;;;;;;;4953343;28;20059;-69
2022/01/14 13:44:48;;;;;;;17.33;12.30;;;;;;;;;;4954409;29;20050;-68
2022/01/14 13:47:22;;;;;;;17.98;11.48;;;;;;;;;;4953762;28;20098;-69
2022/01/14 13:50:17;;;;;;;15.65;12.15;;;;;;;;;;4955451;28;20573;-68
2022/01/14 13:52:46;;;;;;;15.60;12.15;;;;;;;;;;4944445;29;20062;-67
2022/01/14 13:55:15;;;;;;;22.13;13.00;;;;;;;;;;4953186;29;20417;-68
2022/01/14 13:57:41;;;;;;;18.65;13.23;;;;;;;;;;4953530;29;20470;-68
2022/01/14 14:00:13;;;;;;;17.05;11.88;;;;;;;;;;4950841;29;20111;-68
2022/01/14 14:02:47;;;;;;;21.55;12.50;;;;;;;;;;4950630;29;20058;-72
2022/01/14 14:05:37;;;;;;;16.85;12.27;;;;;;;;;;4948774;29;20493;-74
2022/01/14 14:08:07;;;;;;;21.95;13.18;;;;;;;;;;4949280;28;20047;-65
2022/01/14 14:15:39;;;;;;;21.63;12.00;;;;;;;;;;4949958;29;20458;-66
2022/01/14 14:16:32;;;;;;;20.55;13.35;;;;;;;;;;4949330;28;20118;-64
2022/01/14 14:18:59;;;;;;;19.42;12.77;;;;;;;;;;4948678;29;20106;-66
2022/01/14 14:21:33;;;;;;;23.65;13.57;;;;;;;;;;4950912;29;20561;-65
2022/01/14 14:24:02;;;;;;;19.80;12.98;;;;;;;;;;4951086;29;20403;-67
2022/01/14 14:26:30;;;;;;;19.85;13.45;;;;;;;;;;4951134;28;20059;-66
2022/01/14 14:29:03;;;;;;;20.98;13.02;;;;;;;;;;4950867;29;20054;-65
2022/01/14 14:31:31;;;;;;;19.85;11.70;;;;;;;;;;4943671;29;20059;-67
2022/01/14 14:33:58;;;;;;;18.80;12.82;;;;;;;;;;4949679;29;20559;-65
2022/01/14 14:36:27;;;;;;;20.90;14.05;;;;;;;;;;4950718;29;20098;-66
2022/01/14 14:38:54;;;;;;;24.30;15.20;;;;;;;;;;4950785;29;20075;-65
2022/01/14 14:41:25;;;;;;;24.67;14.43;;;;;;;;;;4950669;28;20047;-65
2022/01/14 14:43:52;;;;;;;23.77;13.23;;;;;;;;;;4951110;28;20047;-66
2022/01/14 14:46:19;;;;;;;19.73;11.85;;;;;;;;;;4950789;29;20162;-64
2022/01/14 14:48:46;;;;;;;22.90;13.88;;;;;;;;;;4952288;28;20086;-64
2022/01/14 14:51:12;;;;;;;19.73;12.73;;;;;;;;;;4950815;29;20106;-64
2022/01/14 14:53:39;;;;;;;18.38;13.15;;;;;;;;;;4950940;28;20160;-66
2022/01/14 14:56:09;;;;;;;18.52;12.95;;;;;;;;;;4951201;28;20499;-64
2022/01/14 14:58:37;;;;;;;20.60;13.18;;;;;;;;;;4947616;29;20062;-64
2022/01/14 15:01:07;;;;;;;21.50;13.02;;;;;;;;;;4949871;29;20054;-66
2022/01/14 15:03:36;;;;;;;19.77;12.70;;;;;;;;;;4950744;29;20067;-67